createdAt,value
2023-04-01T00:00:05.507Z,15.88
2023-04-01T00:05:33.655Z,14.68
2023-04-01T00:10:58.745Z,12.70
2023-04-01T00:16:21.561Z,13.63
2023-04-01T00:21:43.908Z,12.40
2023-04-01T00:27:05.713Z,15.02
2023-04-01T00:32:26.994Z,13.07
2023-04-01T00:37:48.740Z,12.23
2023-04-01T00:43:27.973Z,13.98
2023-04-01T00:48:55.222Z,12.25
2023-04-01T00:54:19.288Z,13.70
2023-04-01T00:59:50.292Z,16.42
2023-04-01T01:05:20.130Z,12.95
2023-04-01T01:10:53.654Z,15.27
2023-04-01T01:16:31.099Z,18.08
2023-04-01T01:22:14.444Z,17.02
2023-04-01T01:27:40.338Z,13.82
2023-04-01T01:33:39.773Z,18.30
2023-04-01T01:39:09.135Z,14.95
2023-04-01T01:44:32.732Z,14.23
2023-04-01T01:49:55.770Z,14.60
2023-04-01T01:55:38.075Z,16.23
2023-04-01T02:01:07.339Z,13.10
2023-04-01T02:06:33.239Z,13.75
2023-04-01T02:12:07.238Z,12.85
2023-04-01T02:17:34.961Z,11.15
2023-04-01T02:22:59.430Z,12.55
2023-04-01T02:28:21.967Z,15.10
2023-04-01T02:33:44.674Z,13.57
2023-04-01T02:39:07.121Z,11.95
2023-04-01T02:44:28.439Z,15.13
2023-04-01T02:49:57.805Z,13.80
2023-04-01T02:55:28.238Z,12.75
2023-04-01T03:00:49.837Z,14.52
2023-04-01T03:06:14.486Z,14.18
2023-04-01T03:11:36.659Z,16.33
2023-04-01T03:16:58.259Z,17.55
2023-04-01T03:22:22.636Z,16.45
2023-04-01T03:27:44.193Z,19.30
2023-04-01T03:33:06.868Z,17.77
2023-04-01T03:38:30.816Z,21.05
2023-04-01T03:43:52.123Z,19.88
2023-04-01T03:49:16.754Z,20.40
2023-04-01T03:54:38.455Z,19.17
2023-04-01T03:59:59.908Z,19.25
2023-04-01T04:05:22.060Z,20.95
2023-04-01T04:10:48.259Z,22.52
2023-04-01T04:16:13.210Z,18.73
2023-04-01T04:21:42.151Z,14.90
2023-04-01T04:27:04.620Z,15.25
2023-04-01T04:32:30.126Z,14.82
2023-04-01T04:37:52.748Z,21.35
2023-04-01T04:43:19.143Z,19.67
2023-04-01T04:48:40.666Z,21.75
2023-04-01T04:54:08.531Z,24.08
2023-04-01T04:59:44.560Z,22.63
2023-04-01T05:05:09.762Z,23.83
2023-04-01T05:10:34.565Z,25.55
2023-04-01T05:15:56.456Z,24.83
2023-04-01T05:21:18.013Z,27.75
2023-04-01T05:26:39.490Z,23.67
2023-04-01T05:32:01.025Z,23.20
2023-04-01T05:37:23.256Z,25.27
2023-04-01T05:42:44.599Z,19.50
2023-04-01T05:48:06.702Z,22.02
2023-04-01T05:53:33.849Z,23.30
2023-04-01T05:58:55.603Z,19.70
2023-04-01T06:04:19.714Z,21.45
2023-04-01T06:09:41.961Z,19.73
2023-04-01T06:15:34.282Z,17.90
2023-04-01T06:21:41.890Z,20.45
2023-04-01T06:27:12.639Z,17.40
2023-04-01T06:33:08.212Z,18.67
2023-04-01T06:39:09.593Z,18.10
2023-04-01T06:45:03.057Z,16.30
2023-04-01T06:51:18.530Z,15.25
2023-04-01T07:02:42.886Z,14.82
2023-04-01T07:08:09.841Z,12.02
2023-04-01T07:13:53.750Z,11.88
2023-04-01T07:19:52.543Z,12.50
2023-04-01T07:25:37.518Z,13.07
2023-04-01T07:32:05.156Z,13.75
2023-04-01T07:38:10.034Z,11.90
2023-04-01T07:44:00.942Z,11.63
2023-04-01T07:49:42.484Z,9.63
2023-04-01T07:55:09.800Z,15.77
2023-04-01T08:00:57.779Z,14.63
2023-04-01T08:06:42.800Z,12.70
2023-04-01T08:12:18.435Z,11.63
2023-04-01T08:18:21.263Z,9.43
2023-04-01T08:23:53.322Z,9.90
2023-04-01T08:29:33.248Z,11.23
2023-04-01T08:35:31.710Z,10.82
2023-04-01T08:41:00.209Z,8.10
2023-04-01T08:47:10.658Z,8.55
2023-04-01T08:52:38.189Z,7.43
2023-04-01T08:58:45.881Z,9.30
2023-04-01T09:04:51.930Z,7.00
2023-04-01T09:10:54.708Z,8.23
2023-04-01T09:17:12.584Z,7.90
2023-04-01T09:23:03.776Z,7.38
2023-04-01T09:28:42.733Z,7.05
2023-04-01T09:34:48.987Z,6.22
2023-04-01T09:40:31.674Z,7.05
2023-04-01T09:46:24.781Z,9.05
2023-04-01T09:52:04.013Z,8.70
2023-04-01T09:58:02.686Z,9.65
2023-04-01T10:04:26.352Z,10.95
2023-04-01T10:09:54.073Z,9.30
2023-04-01T10:15:50.040Z,8.07
2023-04-01T10:21:23.861Z,5.25
2023-04-01T10:27:17.708Z,5.22
2023-04-01T10:34:14.813Z,5.10
2023-04-01T10:39:45.054Z,6.93
2023-04-01T10:45:30.695Z,6.35
2023-04-01T10:50:55.477Z,4.63
2023-04-01T11:02:59.352Z,4.45
2023-04-01T11:09:23.721Z,4.07
2023-04-01T11:16:05.633Z,3.70
2023-04-01T11:21:53.643Z,4.18
2023-04-01T11:27:59.565Z,4.63
2023-04-01T11:33:44.414Z,3.30
2023-04-01T11:39:34.844Z,4.13
2023-04-01T11:45:18.042Z,2.50
2023-04-01T11:51:19.098Z,2.63
2023-04-01T11:57:08.815Z,3.58
2023-04-01T12:03:02.527Z,3.00
2023-04-01T12:09:12.946Z,2.90
2023-04-01T12:15:08.150Z,2.88
2023-04-01T12:20:43.076Z,3.95
2023-04-01T12:31:43.233Z,3.25
2023-04-01T12:37:28.213Z,3.45
2023-04-01T12:43:13.514Z,3.28
2023-04-01T12:48:57.895Z,3.65
2023-04-01T12:54:30.723Z,4.03
2023-04-01T13:00:15.899Z,5.13
2023-04-01T13:06:09.379Z,4.18
2023-04-01T13:11:57.707Z,3.35
2023-04-01T13:17:39.666Z,5.95
2023-04-01T13:23:22.173Z,3.92
2023-04-01T13:29:19.335Z,4.38
2023-04-01T13:35:16.047Z,5.97
2023-04-01T13:41:25.008Z,4.28
2023-04-01T13:47:20.131Z,6.05
2023-04-01T13:52:53.609Z,4.38
2023-04-01T13:58:54.794Z,4.28
2023-04-01T14:04:49.193Z,3.88
2023-04-01T14:10:41.608Z,3.20
2023-04-01T14:16:27.983Z,3.75
2023-04-01T14:22:17.127Z,3.58
2023-04-01T14:27:52.550Z,2.83
2023-04-01T14:33:47.843Z,2.35
2023-04-01T14:39:55.719Z,2.43
2023-04-01T14:45:46.091Z,2.85
2023-04-01T14:51:31.189Z,3.00
2023-04-01T14:57:14.709Z,2.15
2023-04-01T15:03:24.026Z,7.10
2023-04-01T15:09:18.303Z,2.50
2023-04-01T15:15:17.124Z,2.35
2023-04-01T15:21:04.143Z,2.33
2023-04-01T15:27:15.141Z,2.10
2023-04-01T15:33:14.528Z,2.75
2023-04-01T15:38:54.069Z,2.63
2023-04-01T15:45:06.637Z,3.25
2023-04-01T15:51:18.146Z,3.05
2023-04-01T15:57:10.041Z,2.88
2023-04-01T16:02:54.551Z,2.50
2023-04-01T16:09:02.344Z,3.17
2023-04-01T16:14:53.601Z,2.92
2023-04-01T16:20:21.832Z,2.92
2023-04-01T16:25:58.810Z,3.92
2023-04-01T16:32:08.068Z,4.10
2023-04-01T16:38:05.010Z,4.43
2023-04-01T16:43:47.256Z,5.03
2023-04-01T16:49:52.746Z,4.78
2023-04-01T16:55:19.541Z,4.97
2023-04-01T17:00:51.264Z,5.35
2023-04-01T17:06:34.364Z,5.72
2023-04-01T17:12:25.152Z,8.40
2023-04-01T17:18:05.025Z,4.95
2023-04-01T17:23:59.182Z,6.65
2023-04-01T17:30:12.579Z,8.68
2023-04-01T17:35:53.870Z,8.00
2023-04-01T17:41:52.738Z,10.45
2023-04-01T17:47:53.358Z,7.03
2023-04-01T17:53:25.579Z,8.10
2023-04-01T17:59:29.872Z,7.72
2023-04-01T18:04:57.026Z,10.35
2023-04-01T18:10:52.699Z,8.20
2023-04-01T18:16:59.158Z,9.25
2023-04-01T18:22:42.784Z,9.60
2023-04-01T18:28:31.433Z,12.38
2023-04-01T18:34:19.794Z,10.73
2023-04-01T18:39:55.189Z,11.82
2023-04-01T18:45:27.258Z,10.13
2023-04-01T18:51:00.942Z,12.25
2023-04-01T18:56:39.347Z,10.00
2023-04-01T19:02:19.620Z,13.02
2023-04-01T19:07:43.242Z,12.73
2023-04-01T19:13:35.177Z,10.27
2023-04-01T19:19:31.161Z,10.93
2023-04-01T19:25:15.777Z,12.00
2023-04-01T19:30:59.222Z,12.40
2023-04-01T19:36:55.782Z,11.32
2023-04-01T19:42:44.663Z,11.57
2023-04-01T19:48:24.538Z,9.55
2023-04-01T19:54:21.432Z,12.82
2023-04-01T20:00:03.860Z,9.85
2023-04-01T20:05:56.295Z,15.57
2023-04-01T20:11:31.809Z,12.65
2023-04-01T20:17:09.016Z,11.73
2023-04-01T20:23:08.304Z,13.45
2023-04-01T20:28:49.875Z,13.43
2023-04-01T20:34:13.842Z,13.48
2023-04-01T20:40:27.751Z,14.45
2023-04-01T20:45:58.527Z,12.68
2023-04-01T20:51:32.716Z,16.27
2023-04-01T20:57:22.525Z,17.33
2023-04-01T21:03:22.848Z,12.82
2023-04-01T21:09:36.907Z,19.45
2023-04-01T21:15:39.862Z,14.38
2023-04-01T21:21:25.439Z,13.07
2023-04-01T21:27:04.762Z,13.38
2023-04-01T21:33:03.433Z,12.70
2023-04-01T21:38:59.162Z,14.07
2023-04-01T21:44:58.777Z,11.75
2023-04-01T21:51:27.561Z,13.60
2023-04-01T21:56:54.418Z,9.85
2023-04-01T22:03:06.005Z,10.57
2023-04-01T22:08:59.290Z,11.32
2023-04-01T22:14:43.321Z,10.27
2023-04-01T22:20:37.776Z,9.80
2023-04-01T22:26:28.415Z,13.25
2023-04-01T22:32:17.375Z,11.57
2023-04-01T22:38:10.840Z,10.18
2023-04-01T22:43:42.693Z,9.10
2023-04-01T22:49:20.646Z,10.45
2023-04-01T22:54:56.187Z,7.28
2023-04-01T23:00:29.036Z,9.50
2023-04-01T23:06:00.360Z,8.48
2023-04-01T23:11:32.403Z,6.22
2023-04-01T23:17:12.045Z,8.48
2023-04-01T23:23:20.453Z,9.02
2023-04-01T23:28:58.758Z,7.72
2023-04-01T23:34:33.565Z,6.60
2023-04-01T23:40:00.811Z,6.55
2023-04-01T23:45:22.499Z,9.27
2023-04-01T23:50:44.211Z,8.35
2023-04-01T23:56:06.090Z,8.93
